Adrian, North Dakota
Current Conditions -  °F | °C
As of 10:56 PM on Sunday 19 Oct 2014 (Local Time) from KJMS Reporting Station
Clear Clear  
Wind Chill: 43°   Ceiling: Unl
Heat Index: 45°   Visibility: 10mi
Dew Point: 37°   Wind: 5mph
Humidity: 74%   Direction: 290°WNW
Pressure: 29.97"   Gusts: NA
Location:  46.6526°N, 98.6214°W
Report Text: KJMS 200356Z AUTO 29004KT 10SM CLR 07/03 A2997 RMK AO2 SLP153 T00720028
Loading
Personal Weather Stations






























Interactive Weather Map
Tropical Storm Tracking
New forecast layout! Learn more

10-Day Weather Forecast

Advertisements
Track Severe Weather on mobile